Time;durP1;ratioP1;P1;durP2;ratioP2;P2;SDS_P1;SDS_P2;PMS_P1;PMS_P2;Temp;Humidity;BMP_temperature;BMP_pressure;BME280_temperature;BME280_humidity;BME280_pressure;Samples;Min_cycle;Max_cycle;Signal;HPM_P1;HPM_P2
2022/09/28 00:00:33;;;;;;;5.18;2.30;;;;;;;11.87;77.32;93837.25;5072049;28;20047;-74
2022/09/28 00:02:58;;;;;;;4.05;2.60;;;;;;;11.75;78.16;93834.09;5071969;28;20051;-74
2022/09/28 00:05:25;;;;;;;2.47;1.95;;;;;;;11.61;79.70;93834.69;5056402;28;20036;-74
2022/09/28 00:07:55;;;;;;;3.58;1.70;;;;;;;11.71;80.14;93822.38;5051833;28;20032;-74
2022/09/28 00:10:23;;;;;;;2.85;1.77;;;;;;;11.70;80.61;93812.94;5051799;28;20108;-74
2022/09/28 00:12:49;;;;;;;2.95;1.80;;;;;;;11.68;81.14;93806.28;5051024;28;20052;-74
2022/09/28 00:15:15;;;;;;;3.65;1.70;;;;;;;11.71;81.04;93804.16;5051747;28;20475;-74
2022/09/28 00:17:40;;;;;;;4.55;1.98;;;;;;;11.83;81.29;93817.69;5051615;28;20056;-74
2022/09/28 00:20:06;;;;;;;5.10;2.10;;;;;;;11.83;81.31;93807.28;5052788;28;20036;-74
2022/09/28 00:22:32;;;;;;;3.63;2.38;;;;;;;11.79;81.01;93800.78;5035240;28;20072;-74
2022/09/28 00:24:57;;;;;;;1.95;1.60;;;;;;;11.73;81.68;93804.00;5051587;28;20029;-74
2022/09/28 00:27:23;;;;;;;2.50;1.70;;;;;;;11.89;80.93;93808.47;5051701;28;20060;-74
2022/09/28 00:29:48;;;;;;;4.45;1.85;;;;;;;11.96;80.32;93818.09;5051564;28;20066;-74
2022/09/28 00:32:14;;;;;;;6.13;2.20;;;;;;;12.10;78.38;93808.03;5034911;28;20040;-74
2022/09/28 00:34:42;;;;;;;3.05;1.40;;;;;;;12.04;78.95;93812.91;5051405;28;20078;-74
2022/09/28 00:37:07;;;;;;;5.72;1.80;;;;;;;12.02;79.25;93806.22;5035043;28;20072;-74
2022/09/28 00:39:34;;;;;;;2.45;1.58;;;;;;;12.04;78.95;93809.47;5034659;28;20037;-74
2022/09/28 00:42:00;;;;;;;2.92;1.80;;;;;;;11.77;79.75;93806.13;5034980;28;20035;-74
2022/09/28 00:44:26;;;;;;;3.60;2.53;;;;;;;11.84;79.85;93814.13;5034641;28;20021;-74
2022/09/28 00:47:15;;;;;;;2.97;1.60;;;;;;;11.97;78.78;93813.69;5052555;28;20491;-74
2022/09/28 00:50:08;;;;;;;3.63;2.03;;;;;;;11.90;78.91;93810.91;5050997;28;20079;-74
2022/09/28 00:52:35;;;;;;;2.78;1.80;;;;;;;11.95;78.62;93811.25;5052698;28;20086;-74
2022/09/28 00:55:01;;;;;;;5.20;2.10;;;;;;;11.91;78.47;93798.72;5050978;28;20029;-74
2022/09/28 00:57:26;;;;;;;5.70;2.50;;;;;;;11.96;78.22;93792.06;5017997;28;20061;-74
2022/09/28 00:59:52;;;;;;;6.45;3.50;;;;;;;11.78;79.34;93807.78;5034237;28;20033;-74
2022/09/28 01:02:18;;;;;;;5.72;2.10;;;;;;;11.79;79.56;93800.78;5051064;28;20040;-74
2022/09/28 01:04:43;;;;;;;3.97;1.73;;;;;;;11.85;79.54;93803.56;5050781;28;20436;-74
2022/09/28 01:07:09;;;;;;;4.60;2.00;;;;;;;11.81;79.75;93799.66;5024217;28;20032;-74
2022/09/28 01:09:37;;;;;;;6.25;2.53;;;;;;;11.87;79.83;93813.00;5039466;28;20025;-74
2022/09/28 01:12:03;;;;;;;3.75;1.80;;;;;;;11.85;79.21;93813.16;5037460;28;20106;-74
2022/09/28 01:14:28;;;;;;;3.90;2.17;;;;;;;11.78;79.08;93804.34;5034808;28;20488;-74
2022/09/28 01:17:13;;;;;;;5.97;2.10;;;;;;;11.87;78.48;93819.03;5038286;28;20053;-74
2022/09/28 01:20:12;;;;;;;4.22;1.80;;;;;;;11.98;76.65;93818.75;5053086;28;20107;-74
2022/09/28 01:22:47;;;;;;;7.55;4.60;;;;;;;11.81;77.19;93817.03;5070635;28;20039;-74
2022/09/28 01:25:23;;;;;;;7.05;3.92;;;;;;;11.61;77.72;93814.69;5070716;28;20028;-74
2022/09/28 01:27:57;;;;;;;7.22;3.10;;;;;;;11.67;77.82;93813.25;5070364;28;20112;-74
2022/09/28 01:30:22;;;;;;;5.85;3.08;;;;;;;11.74;76.83;93813.44;5067455;28;20036;-74
2022/09/28 01:33:07;;;;;;;7.00;2.40;;;;;;;11.66;78.13;93821.22;5070201;28;20028;-74
2022/09/28 01:35:43;;;;;;;5.65;2.13;;;;;;;11.49;78.14;93818.56;5070181;28;20028;-74
2022/09/28 01:38:13;;;;;;;5.70;2.60;;;;;;;11.36;78.72;93826.78;5070106;28;20028;-74
2022/09/28 01:40:38;;;;;;;5.97;1.80;;;;;;;11.34;78.99;93812.31;5037044;28;20028;-74
2022/09/28 01:43:09;;;;;;;2.90;1.60;;;;;;;11.30;79.91;93826.59;5036667;28;20016;-74
2022/09/28 01:45:47;;;;;;;6.18;3.05;;;;;;;11.34;79.81;93839.13;5043082;28;20037;-74
2022/09/28 01:48:35;;;;;;;7.10;4.40;;;;;;;11.37;79.28;93823.22;5034834;28;20029;-74
2022/09/28 01:51:02;;;;;;;4.93;2.80;;;;;;;11.23;79.30;93825.56;5029650;28;20080;-74
2022/09/28 01:53:30;;;;;;;5.57;3.03;;;;;;;11.22;78.50;93829.97;5033518;28;20032;-74
2022/09/28 01:56:02;;;;;;;4.80;2.47;;;;;;;11.16;78.91;93826.19;5049831;28;20029;-74
2022/09/28 01:58:31;;;;;;;4.95;2.80;;;;;;;11.24;78.34;93827.22;5049770;28;20029;-74
2022/09/28 02:01:04;;;;;;;4.95;2.40;;;;;;;11.08;78.52;93833.94;5016852;28;20095;-74
2022/09/28 02:03:43;;;;;;;6.25;2.47;;;;;;;10.97;80.01;93847.19;5023999;28;20028;-74
2022/09/28 02:06:14;;;;;;;2.88;2.10;;;;;;;11.01;81.54;93830.34;5069742;28;20033;-74
2022/09/28 02:08:42;;;;;;;4.10;2.10;;;;;;;11.16;81.16;93836.59;5053342;28;20086;-74
2022/09/28 02:11:15;;;;;;;2.72;2.15;;;;;;;11.01;81.62;93832.94;5053259;28;20453;-74
2022/09/28 02:14:00;;;;;;;6.90;2.42;;;;;;;11.05;81.48;93816.06;5069583;28;20383;-74
2022/09/28 02:16:39;;;;;;;3.95;1.85;;;;;;;11.14;81.15;93843.75;5069631;28;20095;-74
2022/09/28 02:19:10;;;;;;;8.13;2.20;;;;;;;11.00;81.97;93846.06;5069619;28;20055;-74
2022/09/28 02:21:41;;;;;;;4.40;2.00;;;;;;;11.19;81.10;93845.88;5053589;28;20052;-74
2022/09/28 02:24:25;;;;;;;2.75;1.92;;;;;;;11.05;81.71;93849.03;5071057;28;20036;-74
2022/09/28 02:26:51;;;;;;;3.80;1.90;;;;;;;11.22;80.91;93835.16;5070142;28;20059;-74
2022/09/28 02:29:16;;;;;;;3.50;1.90;;;;;;;11.26;80.83;93836.50;5034704;28;20033;-74
2022/09/28 02:31:42;;;;;;;3.05;2.03;;;;;;;11.16;81.30;93836.59;5052854;28;20048;-74
2022/09/28 02:34:07;;;;;;;4.57;2.17;;;;;;;11.30;80.86;93845.59;5036177;28;20055;-74
2022/09/28 02:36:33;;;;;;;3.58;1.92;;;;;;;11.31;80.62;93841.22;5071331;28;20032;-74
2022/09/28 02:39:01;;;;;;;5.90;3.95;;;;;;;11.41;79.58;93840.13;5039375;28;20103;-74
2022/09/28 02:41:32;;;;;;;2.70;2.15;;;;;;;11.23;79.98;93847.22;5057056;28;20040;-74
2022/09/28 02:44:22;;;;;;;8.00;2.33;;;;;;;11.11;80.27;93840.63;5073374;28;20037;-74
2022/09/28 02:46:50;;;;;;;6.88;2.45;;;;;;;10.95;81.02;93839.56;5073700;28;20044;-74
2022/09/28 02:49:18;;;;;;;4.38;2.70;;;;;;;10.94;81.53;93837.09;5074630;28;20033;-75
2022/09/28 02:52:06;;;;;;;4.13;2.47;;;;;;;11.10;80.62;93839.81;5074747;28;20027;-74
2022/09/28 02:54:50;;;;;;;6.72;2.38;;;;;;;11.00;80.56;93846.88;5074508;28;20059;-74
2022/09/28 02:57:37;;;;;;;3.53;2.05;;;;;;;11.04;80.37;93850.03;5074889;28;20047;-74
2022/09/28 03:00:10;;;;;;;3.65;2.50;;;;;;;11.13;79.06;93834.31;5073183;28;20078;-74
2022/09/28 03:03:01;;;;;;;4.68;2.75;;;;;;;10.96;79.21;93840.38;5073385;28;20056;-74
2022/09/28 03:06:11;;;;;;;5.28;3.38;;;;;;;10.87;79.40;93849.91;5057177;28;20410;-74
2022/09/28 03:08:39;;;;;;;4.15;3.00;;;;;;;10.90;78.59;93846.19;5051989;28;20086;-74
2022/09/28 03:11:08;;;;;;;4.35;2.90;;;;;;;10.91;77.81;93856.41;5036566;28;20033;-74
2022/09/28 03:13:33;;;;;;;4.63;3.40;;;;;;;10.64;78.79;93859.97;5036514;28;20111;-74
2022/09/28 03:16:13;;;;;;;8.60;4.03;;;;;;;10.62;78.94;93853.31;5019439;28;20040;-74
2022/09/28 03:18:39;;;;;;;5.20;4.28;;;;;;;10.63;78.79;93862.72;5037106;28;20033;-74
2022/09/28 03:21:05;;;;;;;10.15;6.72;;;;;;;10.63;78.60;93860.91;5052748;28;20033;-74
2022/09/28 03:23:31;;;;;;;5.03;3.58;;;;;;;10.71;77.88;93881.78;5036094;28;20028;-74
2022/09/28 03:25:56;;;;;;;5.65;3.70;;;;;;;10.70;77.96;93876.75;5052689;28;20037;-73
2022/09/28 03:28:22;;;;;;;4.72;4.00;;;;;;;10.58;78.60;93873.53;5053952;28;20036;-73
2022/09/28 03:30:47;;;;;;;6.07;3.65;;;;;;;10.60;77.16;93870.81;5052458;28;20032;-73
2022/09/28 03:33:13;;;;;;;7.20;3.55;;;;;;;10.38;78.01;93872.06;5019452;28;20033;-73
2022/09/28 03:35:38;;;;;;;4.63;3.60;;;;;;;10.19;79.15;93879.00;5052554;28;20044;-74
2022/09/28 03:38:04;;;;;;;4.25;3.58;;;;;;;10.25;79.67;93885.38;5052603;28;20075;-73
2022/09/28 03:40:29;;;;;;;6.82;4.07;;;;;;;10.33;79.45;93887.28;5052468;28;20406;-73
2022/09/28 03:42:55;;;;;;;4.93;3.17;;;;;;;10.41;79.38;93887.34;5052310;28;20407;-73
2022/09/28 03:45:20;;;;;;;4.35;3.22;;;;;;;10.35;80.18;93887.94;5053431;28;20079;-73
2022/09/28 03:47:46;;;;;;;3.55;2.92;;;;;;;10.28;81.53;93882.53;5050965;28;20116;-73
2022/09/28 03:50:12;;;;;;;4.95;3.17;;;;;;;10.32;81.96;93883.06;5035710;28;20086;-74
2022/09/28 03:52:37;;;;;;;4.75;3.45;;;;;;;10.46;82.10;93887.72;5052332;28;20047;-73
2022/09/28 03:55:03;;;;;;;4.90;3.10;;;;;;;10.58;81.96;93883.13;5052194;28;20029;-73
2022/09/28 03:57:28;;;;;;;5.72;4.05;;;;;;;10.54;81.56;93882.59;5019135;28;20033;-73
2022/09/28 03:59:54;;;;;;;5.88;3.92;;;;;;;10.56;82.19;93891.06;5035413;28;20040;-74
2022/09/28 04:02:19;;;;;;;7.30;3.50;;;;;;;10.60;82.23;93882.00;5053568;28;20037;-73
2022/09/28 04:04:44;;;;;;;9.52;3.60;;;;;;;10.63;82.62;93881.69;5024136;28;20025;-73
2022/09/28 04:07:10;;;;;;;3.97;3.40;;;;;;;10.58;82.97;93883.94;5063245;28;20036;-74
2022/09/28 04:09:35;;;;;;;5.78;3.25;;;;;;;10.64;82.85;93892.91;5043365;28;20398;-74
2022/09/28 04:12:01;;;;;;;5.05;3.17;;;;;;;10.59;83.45;93890.78;5030674;28;20025;-74
2022/09/28 04:14:26;;;;;;;4.93;2.92;;;;;;;10.70;83.04;93877.56;5059757;28;20036;-74
2022/09/28 04:16:53;;;;;;;5.45;3.50;;;;;;;10.82;82.60;93885.09;5051489;28;20092;-74
2022/09/28 04:19:20;;;;;;;6.25;3.10;;;;;;;10.85;82.67;93874.41;5065586;28;20426;-74
2022/09/28 04:21:47;;;;;;;7.00;2.88;;;;;;;10.86;82.74;93868.22;5048391;28;20392;-73
2022/09/28 04:24:13;;;;;;;3.47;2.75;;;;;;;10.85;82.74;93864.00;5058644;28;20032;-74
2022/09/28 04:26:38;;;;;;;3.50;2.90;;;;;;;10.92;82.86;93868.47;5079911;28;20025;-73
2022/09/28 04:29:16;;;;;;;5.47;2.83;;;;;;;10.91;82.55;93864.22;5081755;28;20193;-74
2022/09/28 04:31:44;;;;;;;3.22;2.67;;;;;;;11.11;81.97;93861.41;5075431;28;20589;-73
2022/09/28 04:34:11;;;;;;;5.25;3.00;;;;;;;11.23;81.44;93861.97;5074672;28;20032;-74
2022/09/28 04:36:36;;;;;;;4.10;2.67;;;;;;;11.00;82.67;93862.47;5050075;28;20044;-73
2022/09/28 04:39:02;;;;;;;4.95;2.80;;;;;;;11.17;82.64;93869.44;5070453;28;20044;-74
2022/09/28 04:41:27;;;;;;;5.03;2.70;;;;;;;11.23;82.20;93867.16;5074763;28;20043;-74
2022/09/28 04:43:53;;;;;;;5.80;3.05;;;;;;;11.24;82.19;93874.00;5064642;28;20055;-73
2022/09/28 04:46:18;;;;;;;3.33;2.60;;;;;;;11.28;81.97;93862.31;5066156;28;20048;-74
2022/09/28 04:48:44;;;;;;;4.88;2.95;;;;;;;11.27;82.21;93879.72;5048887;28;20033;-74
2022/09/28 04:51:10;;;;;;;7.28;2.90;;;;;;;11.31;82.60;93888.00;5066651;28;20029;-73
2022/09/28 04:53:35;;;;;;;5.10;2.50;;;;;;;11.38;82.72;93871.66;5030917;28;20033;-74
2022/09/28 04:56:01;;;;;;;5.57;2.63;;;;;;;11.53;81.54;93856.28;5043330;28;20032;-74
2022/09/28 04:58:27;;;;;;;5.10;2.67;;;;;;;11.51;82.03;93866.03;5064363;28;20028;-74
2022/09/28 05:00:55;;;;;;;6.45;3.10;;;;;;;11.40;82.87;93879.31;5068812;28;20532;-74
2022/09/28 05:03:21;;;;;;;4.28;2.90;;;;;;;11.52;82.63;93867.66;5034890;28;20108;-74
2022/09/28 05:05:47;;;;;;;6.40;3.08;;;;;;;11.60;82.11;93859.06;5050752;28;20033;-74
2022/09/28 05:08:13;;;;;;;5.68;2.65;;;;;;;11.74;82.11;93860.28;5034355;28;20025;-74
2022/09/28 05:10:39;;;;;;;6.10;2.60;;;;;;;11.70;82.16;93864.13;5050647;28;20459;-74
2022/09/28 05:13:11;;;;;;;3.63;2.50;;;;;;;11.88;81.83;93867.50;5052291;28;20035;-74
2022/09/28 05:15:37;;;;;;;3.47;2.65;;;;;;;11.84;81.61;93876.56;5054107;28;20021;-74
2022/09/28 05:18:03;;;;;;;5.97;2.50;;;;;;;11.93;81.44;93882.66;5070516;28;20498;-74
2022/09/28 05:20:28;;;;;;;5.13;2.65;;;;;;;11.91;81.56;93885.41;5053052;28;20029;-74
2022/09/28 05:22:54;;;;;;;3.97;3.08;;;;;;;12.04;80.96;93890.97;5053783;28;20040;-74
2022/09/28 05:25:19;;;;;;;4.55;3.40;;;;;;;12.06;81.02;93896.00;5053608;28;20039;-74
2022/09/28 05:27:45;;;;;;;6.18;4.55;;;;;;;12.15;81.03;93908.09;5037008;28;20111;-74
2022/09/28 05:30:10;;;;;;;5.32;4.53;;;;;;;12.21;80.07;93885.81;5070328;28;20491;-74
2022/09/28 05:32:45;;;;;;;5.50;4.70;;;;;;;12.47;79.36;93901.31;5070362;28;20036;-73
2022/09/28 05:35:11;;;;;;;5.22;4.18;;;;;;;12.51;80.15;93897.44;5070277;28;20097;-74
2022/09/28 05:37:37;;;;;;;8.25;4.97;;;;;;;12.53;79.48;93896.28;5070304;28;20044;-74
2022/09/28 05:40:03;;;;;;;6.68;4.10;;;;;;;12.59;78.78;93901.81;5056778;28;20060;-73
2022/09/28 05:42:29;;;;;;;4.05;3.65;;;;;;;12.66;77.60;93892.41;5046685;28;20495;-74
2022/09/28 05:44:54;;;;;;;5.22;3.45;;;;;;;12.69;77.27;93900.69;5070049;28;20043;-75
2022/09/28 05:47:20;;;;;;;6.70;3.85;;;;;;;12.76;76.70;93903.50;5046713;28;20579;-74
2022/09/28 05:49:45;;;;;;;3.70;3.30;;;;;;;12.74;77.30;93902.81;5033401;28;20461;-74
2022/09/28 05:52:11;;;;;;;4.00;3.60;;;;;;;12.75;78.16;93889.63;5071053;28;20047;-74
2022/09/28 05:54:36;;;;;;;4.72;3.63;;;;;;;12.99;78.42;93903.66;5069971;28;20025;-74
2022/09/28 05:57:04;;;;;;;5.82;4.47;;;;;;;13.13;78.24;93905.59;5036654;28;20035;-74
2022/09/28 05:59:29;;;;;;;5.68;4.28;;;;;;;13.43;77.04;93889.41;5070161;28;20054;-74
2022/09/28 06:01:55;;;;;;;9.90;4.80;;;;;;;13.76;76.08;93893.59;5046899;28;20037;-75
2022/09/28 06:04:21;;;;;;;5.68;4.30;;;;;;;14.08;75.00;93902.25;5035154;28;20029;-74
2022/09/28 06:06:46;;;;;;;8.10;5.47;;;;;;;14.47;73.84;93906.63;5043192;28;20037;-74
2022/09/28 06:09:12;;;;;;;5.53;4.82;;;;;;;14.73;72.67;93888.81;5034059;28;20029;-74
2022/09/28 06:11:37;;;;;;;6.97;4.75;;;;;;;15.26;72.22;93899.34;5050558;28;20099;-74
2022/09/28 06:14:04;;;;;;;6.70;4.70;;;;;;;15.82;70.27;93901.59;5033148;28;20075;-74
2022/09/28 06:16:29;;;;;;;10.48;4.38;;;;;;;16.13;69.19;93898.78;5052990;28;20049;-74
2022/09/28 06:18:55;;;;;;;8.70;4.25;;;;;;;16.18;67.73;93899.03;5049411;28;20491;-74
2022/09/28 06:21:20;;;;;;;5.32;4.05;;;;;;;16.29;66.70;93905.63;5054912;28;20025;-74
2022/09/28 06:23:46;;;;;;;5.28;4.78;;;;;;;16.04;65.98;93855.34;5069600;28;20036;-74
2022/09/28 06:26:12;;;;;;;7.72;5.20;;;;;;;16.04;67.39;93895.44;5060274;28;20108;-74
2022/09/28 06:28:37;;;;;;;7.70;5.82;;;;;;;15.43;70.35;93907.84;5049475;28;20414;-74
2022/09/28 06:31:03;;;;;;;7.85;5.53;;;;;;;15.64;69.40;93907.16;5049332;28;20037;-74
2022/09/28 06:33:29;;;;;;;9.90;5.88;;;;;;;15.64;68.27;93902.75;5032816;28;20442;-74
2022/09/28 06:35:54;;;;;;;7.97;5.90;;;;;;;15.72;68.79;93919.41;5060268;28;20094;-74
2022/09/28 06:38:20;;;;;;;8.35;5.70;;;;;;;15.72;67.14;93909.72;5052712;28;20033;-74
2022/09/28 06:40:46;;;;;;;6.15;5.35;;;;;;;15.71;68.29;93917.75;5032765;28;20116;-74
2022/09/28 06:43:13;;;;;;;6.72;5.50;;;;;;;15.55;70.52;93913.50;5057667;28;20414;-74
2022/09/28 06:45:39;;;;;;;7.60;5.75;;;;;;;15.55;70.57;93906.44;5060835;28;20376;-74
2022/09/28 06:48:05;;;;;;;8.48;5.97;;;;;;;15.49;71.29;93914.19;5023685;28;20028;-74
2022/09/28 06:50:33;;;;;;;7.45;5.70;;;;;;;15.56;71.67;93909.88;5049293;28;20030;-74
2022/09/28 06:52:59;;;;;;;8.85;6.32;;;;;;;15.59;71.37;93912.94;5032597;28;20090;-74
2022/09/28 06:55:25;;;;;;;5.95;5.35;;;;;;;15.52;71.12;93919.88;5049544;28;20025;-74
2022/09/28 06:58:18;;;;;;;9.80;6.63;;;;;;;15.74;71.02;93912.16;5032494;28;20021;-74
2022/09/28 07:00:44;;;;;;;9.13;7.30;;;;;;;15.86;69.56;93915.97;5047347;28;20399;-74
2022/09/28 07:03:11;;;;;;;12.43;7.35;;;;;;;15.81;69.38;93940.06;5016203;28;20032;-74
2022/09/28 07:05:40;;;;;;;9.45;6.47;;;;;;;15.88;69.98;93940.19;5032803;28;20025;-74
2022/09/28 07:08:05;;;;;;;7.63;6.40;;;;;;;15.80;68.25;93935.03;5016812;28;20024;-74
2022/09/28 07:10:31;;;;;;;8.13;6.57;;;;;;;15.71;69.16;93933.47;5049198;28;20033;-74
2022/09/28 07:12:59;;;;;;;7.32;6.07;;;;;;;15.70;68.76;93940.50;5015987;28;20029;-74
2022/09/28 07:15:26;;;;;;;8.73;6.18;;;;;;;15.72;68.60;93927.25;5016601;28;20067;-74
2022/09/28 07:17:58;;;;;;;8.55;7.20;;;;;;;15.57;68.83;93924.56;5049115;28;20499;-74
2022/09/28 07:20:24;;;;;;;8.30;7.28;;;;;;;15.59;68.92;93920.78;5032432;28;20025;-74
2022/09/28 07:22:56;;;;;;;10.85;7.70;;;;;;;15.75;70.34;93929.50;5051377;28;20074;-74
2022/09/28 07:25:22;;;;;;;8.73;7.43;;;;;;;15.80;70.61;93919.31;5036160;28;20029;-74
2022/09/28 07:27:48;;;;;;;10.98;7.28;;;;;;;15.79;70.09;93908.00;5036130;28;20069;-74
2022/09/28 07:30:14;;;;;;;10.65;7.80;;;;;;;15.82;71.12;93904.22;5053494;28;20021;-74
2022/09/28 07:32:40;;;;;;;8.85;6.68;;;;;;;15.89;71.19;93922.66;5046109;28;20028;-75
2022/09/28 07:35:08;;;;;;;8.95;6.53;;;;;;;15.95;70.85;93924.53;5046772;28;20089;-74
2022/09/28 07:37:36;;;;;;;7.15;6.35;;;;;;;16.11;70.80;93918.31;5052424;28;20037;-75
2022/09/28 07:42:50;;;;;;;7.82;5.25;;;;;;;16.34;70.03;93924.22;5072529;28;20044;-74
2022/09/28 07:45:19;;;;;;;7.63;6.25;;;;;;;16.39;69.91;93937.59;5072430;28;20028;-74
2022/09/28 07:47:45;;;;;;;7.80;6.60;;;;;;;16.48;69.61;93933.06;5072262;28;20436;-74
2022/09/28 07:50:11;;;;;;;12.45;6.55;;;;;;;16.62;69.25;93939.25;5073469;28;20081;-74
2022/09/28 07:52:36;;;;;;;7.25;5.63;;;;;;;16.66;68.95;93937.88;5063802;28;20063;-74
2022/09/28 07:55:03;;;;;;;6.22;5.63;;;;;;;16.67;69.09;93932.47;5052308;28;20138;-74
2022/09/28 07:57:29;;;;;;;5.50;4.90;;;;;;;16.82;67.81;93947.38;5035838;28;20094;-74
2022/09/28 07:59:54;;;;;;;6.65;4.90;;;;;;;16.82;67.54;93939.50;5052340;28;20037;-74
2022/09/28 08:02:20;;;;;;;6.55;4.60;;;;;;;16.94;67.40;93946.69;5054108;28;20037;-74
2022/09/28 08:04:46;;;;;;;7.47;4.60;;;;;;;16.97;66.90;93946.31;5054336;28;20029;-74
2022/09/28 08:07:14;;;;;;;6.72;4.93;;;;;;;17.05;67.14;93952.44;5040362;28;20120;-74
2022/09/28 08:09:39;;;;;;;7.22;4.78;;;;;;;16.91;65.94;93943.63;5047295;28;20461;-74
2022/09/28 08:12:06;;;;;;;8.13;4.55;;;;;;;16.88;66.46;93951.84;5061444;28;20067;-74
2022/09/28 08:14:33;;;;;;;6.50;4.40;;;;;;;17.01;66.82;93949.38;5054978;28;20028;-74
2022/09/28 08:17:02;;;;;;;7.10;4.38;;;;;;;17.04;66.31;93956.06;5047999;28;20087;-74
2022/09/28 08:21:43;;;;;;;5.80;4.20;;;;;;;17.09;65.87;93948.44;5058793;28;20036;-74
2022/09/28 08:22:16;;;;;;;5.30;4.38;;;;;;;17.26;65.29;93949.81;5061309;28;20481;-74
2022/09/28 08:24:42;;;;;;;7.00;4.63;;;;;;;17.34;65.01;93951.50;5070049;28;20032;-74
2022/09/28 08:27:09;;;;;;;5.15;4.03;;;;;;;17.34;64.54;93947.06;5071650;28;20457;-74
2022/09/28 08:29:35;;;;;;;4.07;3.45;;;;;;;17.42;65.58;93952.16;5056698;28;20032;-74
2022/09/28 08:32:00;;;;;;;4.45;2.88;;;;;;;17.59;64.74;93950.06;5048303;28;20032;-74
2022/09/28 08:34:26;;;;;;;5.70;2.97;;;;;;;17.64;63.56;93945.06;5072183;28;20108;-74
2022/09/28 08:36:52;;;;;;;6.32;3.47;;;;;;;17.63;64.63;93953.13;5018525;28;20036;-74
2022/09/28 08:39:17;;;;;;;4.63;3.00;;;;;;;17.61;64.28;93942.81;5023273;28;20054;-75
2022/09/28 08:42:05;;;;;;;5.95;3.17;;;;;;;17.71;62.59;93936.41;5045651;28;20111;-75
2022/09/28 08:44:37;;;;;;;5.28;3.13;;;;;;;17.76;62.33;93926.16;5056200;28;20099;-75
2022/09/28 08:48:42;;;;;;;6.55;3.00;;;;;;;17.67;62.31;93924.69;5030131;28;20522;-74
2022/09/28 08:49:54;;;;;;;4.78;2.90;;;;;;;17.60;63.62;93930.69;5037988;28;20490;-75
2022/09/28 08:52:25;;;;;;;6.22;3.00;;;;;;;17.59;63.62;93926.44;5034689;28;20044;-74
2022/09/28 08:54:53;;;;;;;;;;;;;;;17.65;66.08;93938.81;5059708;28;20032;-74
2022/09/28 08:57:21;;;;;;;4.40;2.92;;;;;;;17.56;65.97;93931.28;5057503;28;19935;-75
2022/09/28 08:59:58;;;;;;;5.35;2.97;;;;;;;17.46;65.82;93917.66;5048520;28;20154;-75
2022/09/28 09:02:32;;;;;;;4.00;2.83;;;;;;;17.37;63.87;93930.13;5052134;28;20094;-75
2022/09/28 09:04:57;;;;;;;3.95;2.78;;;;;;;17.26;64.35;93920.13;5052105;28;20043;-74
2022/09/28 09:07:44;;;;;;;4.28;2.90;;;;;;;17.17;66.12;93916.84;5034368;28;20037;-75
2022/09/28 09:10:17;;;;;;;6.75;3.13;;;;;;;17.11;65.40;93917.59;5052898;28;20086;-74
2022/09/28 09:13:13;;;;;;;4.57;2.80;;;;;;;17.00;64.83;93913.66;5050720;28;20442;-74
2022/09/28 09:15:43;;;;;;;8.75;2.80;;;;;;;17.10;66.40;93916.75;5050819;28;20124;-75
2022/09/28 09:18:25;;;;;;;6.43;2.95;;;;;;;17.02;67.72;93926.56;5050257;28;20128;-75
2022/09/28 09:20:57;;;;;;;5.47;3.33;;;;;;;16.99;69.95;93922.50;5060349;28;20445;-75
2022/09/28 09:23:28;;;;;;;5.70;4.00;;;;;;;17.08;70.75;93921.41;5019585;28;20086;-75
2022/09/28 09:25:56;;;;;;;7.65;4.00;;;;;;;17.15;68.80;93924.06;5050446;28;20037;-75
2022/09/28 09:28:46;;;;;;;9.15;4.50;;;;;;;17.10;69.02;93923.81;5042053;28;20025;-74
2022/09/28 09:31:25;;;;;;;6.32;4.15;;;;;;;17.03;69.01;93923.78;5057705;28;20044;-74
2022/09/28 09:34:34;;;;;;;7.07;4.00;;;;;;;16.98;69.91;93926.94;5063753;28;20028;-75
2022/09/28 09:37:24;;;;;;;7.20;3.30;;;;;;;17.04;69.57;93921.97;5030216;28;20033;-75
2022/09/28 09:40:25;;;;;;;5.35;3.50;;;;;;;17.19;68.64;93906.97;5029179;28;20615;-75
2022/09/28 09:42:59;;;;;;;6.50;3.10;;;;;;;17.17;67.12;93903.72;5046219;28;20048;-75
2022/09/28 09:45:46;;;;;;;7.88;3.00;;;;;;;17.39;67.34;93907.13;5068040;28;20029;-75
2022/09/28 09:48:28;;;;;;;6.20;3.22;;;;;;;17.51;67.40;93879.31;5051097;28;20032;-75
2022/09/28 09:50:59;;;;;;;6.13;3.55;;;;;;;17.66;65.68;93887.09;5017334;28;20533;-75
2022/09/28 09:53:28;;;;;;;4.13;2.90;;;;;;;17.75;65.22;93883.31;5051078;28;20123;-75
2022/09/28 09:56:21;;;;;;;4.30;2.80;;;;;;;18.03;64.86;93880.66;5051166;28;20041;-75
2022/09/28 09:58:51;;;;;;;8.60;2.97;;;;;;;18.23;62.77;93875.50;5037780;28;20036;-75
2022/09/28 10:01:19;;;;;;;6.30;2.58;;;;;;;18.41;63.20;93874.13;5053133;28;20433;-75
2022/09/28 10:03:45;;;;;;;4.97;2.42;;;;;;;18.59;61.79;93882.28;5036601;28;20048;-75
2022/09/28 10:06:15;;;;;;;4.57;2.50;;;;;;;18.67;60.94;93871.59;5050649;28;20036;-75
2022/09/28 10:08:49;;;;;;;4.93;2.67;;;;;;;18.92;60.80;93865.78;5033625;28;20041;-74
2022/09/28 10:11:17;;;;;;;6.63;2.30;;;;;;;19.09;59.74;93859.13;5050011;28;20037;-75
2022/09/28 10:13:43;;;;;;;4.55;2.40;;;;;;;19.16;58.01;93862.53;5018281;28;20035;-75
2022/09/28 10:16:09;;;;;;;5.82;2.22;;;;;;;19.27;57.46;93865.59;5049377;28;20427;-75
2022/09/28 10:18:34;;;;;;;3.90;2.00;;;;;;;19.54;55.70;93854.00;5033348;28;20059;-74
2022/09/28 10:21:00;;;;;;;3.85;2.03;;;;;;;19.66;54.73;93859.50;5017031;28;20075;-75
2022/09/28 10:23:32;;;;;;;5.95;2.00;;;;;;;19.69;55.11;93861.72;5050720;28;20029;-75
2022/09/28 10:26:03;;;;;;;5.35;2.20;;;;;;;19.77;55.16;93858.06;5032948;28;20182;-75
2022/09/28 10:28:45;;;;;;;5.30;2.00;;;;;;;19.71;55.66;93858.88;5061173;28;20038;-75
2022/09/28 10:31:35;;;;;;;5.75;2.40;;;;;;;19.81;54.71;93870.63;5032617;28;20060;-75
2022/09/28 10:34:01;;;;;;;6.90;2.20;;;;;;;19.90;53.98;93857.22;5070241;28;20028;-75
2022/09/28 10:36:26;;;;;;;6.65;2.05;;;;;;;19.89;54.53;93864.28;5068632;28;20519;-75
2022/09/28 10:38:53;;;;;;;7.03;2.17;;;;;;;19.95;53.60;93850.31;5053268;28;20040;-75
2022/09/28 10:41:20;;;;;;;6.50;2.08;;;;;;;20.07;50.08;93847.84;5049448;28;20115;-75
2022/09/28 10:44:04;;;;;;;6.03;2.20;;;;;;;20.08;52.90;93838.91;5049433;28;20020;-75
2022/09/28 10:46:31;;;;;;;7.78;2.40;;;;;;;20.24;51.26;93845.53;5049820;28;20029;-75
2022/09/28 10:49:14;;;;;;;3.55;1.60;;;;;;;20.31;51.25;93838.41;5048329;28;20025;-75
2022/09/28 10:51:50;;;;;;;4.28;2.15;;;;;;;20.41;50.06;93838.75;5030568;28;20115;-75
2022/09/28 10:54:20;;;;;;;5.35;2.00;;;;;;;20.47;50.76;93837.91;5057334;28;20070;-75
2022/09/28 10:56:46;;;;;;;4.23;1.60;;;;;;;20.61;50.64;93832.59;5050595;28;20041;-75
2022/09/28 10:59:41;;;;;;;3.38;1.90;;;;;;;20.74;50.08;93828.03;5036487;28;20288;-75
2022/09/28 11:02:20;;;;;;;3.50;1.60;;;;;;;20.82;48.65;93813.78;5065613;28;20040;-75
2022/09/28 11:04:52;;;;;;;4.00;1.80;;;;;;;20.97;48.24;93814.25;5020714;28;20032;-75
2022/09/28 11:07:29;;;;;;;4.53;1.58;;;;;;;21.18;46.91;93812.28;5053033;28;20075;-75
2022/09/28 11:09:55;;;;;;;2.67;1.50;;;;;;;21.29;46.81;93816.06;5036431;28;20025;-75
2022/09/28 11:12:23;;;;;;;2.55;1.42;;;;;;;21.54;44.54;93816.06;5053092;28;20459;-75
2022/09/28 11:14:51;;;;;;;2.08;1.23;;;;;;;21.49;44.58;93813.25;5052949;28;20453;-75
2022/09/28 11:17:40;;;;;;;5.20;1.60;;;;;;;21.42;45.41;93806.22;5036707;28;20052;-75
2022/09/28 11:20:33;;;;;;;4.13;1.75;;;;;;;21.63;43.03;93804.16;5021482;28;20035;-75
2022/09/28 11:23:28;;;;;;;3.60;1.35;;;;;;;21.77;44.46;93803.00;5020553;28;20043;-75
2022/09/28 11:26:05;;;;;;;3.08;1.35;;;;;;;21.69;43.94;93805.13;5052797;28;20451;-75
2022/09/28 11:28:32;;;;;;;3.90;1.10;;;;;;;21.74;41.24;93803.44;5036286;28;20036;-75
2022/09/28 11:30:58;;;;;;;2.47;1.30;;;;;;;21.74;43.95;93806.06;5036119;28;20108;-75
2022/09/28 11:33:37;;;;;;;3.55;1.60;;;;;;;21.70;44.64;93788.22;5053960;28;20040;-75
2022/09/28 11:36:08;;;;;;;2.97;1.70;;;;;;;21.76;43.55;93782.88;5068322;28;20429;-75
2022/09/28 11:38:59;;;;;;;3.97;1.50;;;;;;;21.87;41.41;93776.06;5065509;28;20111;-75
2022/09/28 11:41:56;;;;;;;2.28;1.48;;;;;;;21.95;41.17;93773.09;5052441;28;20029;-75
2022/09/28 11:44:34;;;;;;;2.08;1.10;;;;;;;22.18;39.73;93780.38;5053708;28;20029;-75
2022/09/28 11:47:08;;;;;;;2.80;1.10;;;;;;;22.12;41.31;93773.31;5052486;28;20108;-75
2022/09/28 11:49:42;;;;;;;4.88;1.23;;;;;;;21.97;40.18;93780.81;5053462;28;20498;-75
2022/09/28 11:52:26;;;;;;;2.20;1.05;;;;;;;22.22;38.34;93778.88;5042264;28;20098;-75